Time;durP1;ratioP1;P1;durP2;ratioP2;P2;SDS_P1;SDS_P2;PMS_P1;PMS_P2;Temp;Humidity;BMP_temperature;BMP_pressure;BME280_temperature;BME280_humidity;BME280_pressure;Samples;Min_cycle;Max_cycle;Signal;HPM_P1;HPM_P2
2021/12/20 00:00:24;;;;;;;43.20;21.47;;;;;;;0.81;100.00;96312.47;6249960;22;20181;-88
2021/12/20 00:02:55;;;;;;;48.20;22.13;;;;;;;0.78;100.00;96302.34;6251768;22;20149;-85
2021/12/20 00:05:23;;;;;;;46.60;22.07;;;;;;;0.77;100.00;96299.88;6250557;22;20179;-87
2021/12/20 00:08:08;;;;;;;46.53;22.57;;;;;;;0.77;100.00;96284.53;6251166;22;20149;-87
2021/12/20 00:10:34;;;;;;;40.53;20.13;;;;;;;0.80;100.00;96300.56;6251724;22;20177;-86
2021/12/20 00:13:00;;;;;;;45.60;21.33;;;;;;;0.80;100.00;96298.03;6250109;22;20161;-87
2021/12/20 00:15:25;;;;;;;39.73;20.67;;;;;;;0.79;100.00;96287.84;6250145;22;20245;-87
2021/12/20 00:17:51;;;;;;;45.00;21.73;;;;;;;0.80;100.00;96295.47;6252290;22;20187;-87
2021/12/20 00:20:17;;;;;;;51.27;22.73;;;;;;;0.80;100.00;96287.78;6252005;22;20155;-88
2021/12/20 00:22:43;;;;;;;41.07;19.83;;;;;;;0.78;100.00;96292.13;6251666;22;20650;-87
2021/12/20 00:25:09;;;;;;;46.23;21.73;;;;;;;0.78;100.00;96287.00;6252598;22;20214;-85
2021/12/20 00:27:38;;;;;;;41.97;19.97;;;;;;;0.80;100.00;96284.41;6252274;22;20178;-88
2021/12/20 00:30:05;;;;;;;45.33;22.80;;;;;;;0.79;100.00;96275.88;6277101;22;20187;-87
2021/12/20 00:32:31;;;;;;;42.57;20.97;;;;;;;0.78;100.00;96271.66;6277033;22;20164;-87
2021/12/20 00:34:56;;;;;;;43.07;22.27;;;;;;;0.80;100.00;96272.44;6252093;22;20617;-88
2021/12/20 00:40:21;;;;;;;52.07;25.03;;;;;;;0.78;100.00;96271.66;6278383;22;20528;-88
2021/12/20 00:42:54;;;;;;;51.50;24.27;;;;;;;0.77;100.00;96275.13;6254767;22;20164;-88
2021/12/20 00:45:20;;;;;;;40.60;21.20;;;;;;;0.69;100.00;96272.09;6252098;22;20238;-87
2021/12/20 00:47:46;;;;;;;38.30;21.47;;;;;;;0.73;100.00;96260.00;6251271;22;20168;-88
2021/12/20 00:50:13;;;;;;;43.23;21.17;;;;;;;0.81;100.00;96265.59;6250759;22;20618;-88
2021/12/20 00:52:39;;;;;;;44.17;22.83;;;;;;;0.77;100.00;96261.53;6249801;22;20175;-87
2021/12/20 00:55:06;;;;;;;44.23;23.00;;;;;;;0.78;100.00;96269.13;6250888;22;20182;-88
2021/12/20 00:57:31;;;;;;;45.77;21.63;;;;;;;0.77;100.00;96267.47;6250407;22;20168;-88
2021/12/20 00:59:59;;;;;;;46.73;23.43;;;;;;;0.78;100.00;96268.28;6250724;22;20156;-87
2021/12/20 01:02:24;;;;;;;44.53;22.77;;;;;;;0.77;100.00;96262.34;6249369;22;20160;-87
2021/12/20 01:04:50;;;;;;;44.93;21.90;;;;;;;0.78;100.00;96261.44;6250884;22;20618;-87
2021/12/20 01:07:15;;;;;;;44.47;21.80;;;;;;;0.74;100.00;96254.81;6250502;22;20532;-88
2021/12/20 01:09:41;;;;;;;47.07;22.27;;;;;;;0.73;100.00;96253.19;6251484;22;20282;-88
2021/12/20 01:12:14;;;;;;;48.87;23.50;;;;;;;0.73;100.00;96252.34;6249397;22;20157;-87
2021/12/20 01:14:39;;;;;;;41.30;21.47;;;;;;;0.76;100.00;96257.31;6252112;22;20183;-88
2021/12/20 01:17:05;;;;;;;50.03;24.10;;;;;;;0.76;100.00;96255.56;6249929;22;20152;-88
2021/12/20 01:19:35;;;;;;;41.57;20.67;;;;;;;0.71;100.00;96252.44;6276282;22;20148;-87
2021/12/20 01:22:01;;;;;;;38.80;21.23;;;;;;;0.74;100.00;96254.00;6249857;22;20156;-88
2021/12/20 01:24:29;;;;;;;41.90;21.30;;;;;;;0.77;100.00;96257.22;6275679;22;20627;-87
2021/12/20 01:26:55;;;;;;;44.37;21.27;;;;;;;0.74;100.00;96254.81;6250454;22;20154;-88
2021/12/20 01:29:23;;;;;;;38.57;20.60;;;;;;;0.74;100.00;96259.94;6250495;22;20259;-88
2021/12/20 01:31:49;;;;;;;48.13;22.70;;;;;;;0.77;100.00;96253.84;6250066;22;20614;-88
2021/12/20 01:34:18;;;;;;;42.73;20.93;;;;;;;0.72;100.00;96254.06;6250124;22;20156;-87
2021/12/20 01:36:43;;;;;;;38.50;19.27;;;;;;;0.77;100.00;96256.41;6250317;22;20459;-87
2021/12/20 01:39:09;;;;;;;37.97;19.90;;;;;;;0.67;100.00;96248.34;6250866;22;20163;-88
2021/12/20 01:41:40;;;;;;;39.60;20.47;;;;;;;0.74;100.00;96259.94;6250082;22;20243;-87
2021/12/20 01:44:06;;;;;;;38.07;19.10;;;;;;;0.72;100.00;96248.13;6249600;22;20180;-88
2021/12/20 01:46:31;;;;;;;37.77;19.33;;;;;;;0.73;100.00;96247.25;6249983;22;20184;-87
2021/12/20 01:48:58;;;;;;;41.53;20.83;;;;;;;0.74;100.00;96252.28;6250209;22;20153;-87
2021/12/20 01:53:58;;;;;;;35.40;19.87;;;;;;;0.70;100.00;96250.75;6276754;22;20137;-88
2021/12/20 01:56:23;;;;;;;37.60;20.07;;;;;;;0.76;100.00;96245.34;6250125;22;20291;-88
2021/12/20 01:58:49;;;;;;;39.83;19.10;;;;;;;0.74;100.00;96242.03;6250120;22;20239;-87
2021/12/20 02:03:44;;;;;;;37.83;20.37;;;;;;;0.69;100.00;96233.75;6275707;22;20602;-87
2021/12/20 02:06:19;;;;;;;35.47;19.17;;;;;;;0.66;100.00;96233.06;6275484;22;20650;-88
2021/12/20 02:08:44;;;;;;;41.27;21.83;;;;;;;0.71;100.00;96231.16;6251903;22;20159;-88
2021/12/20 02:11:12;;;;;;;39.80;20.17;;;;;;;0.72;100.00;96237.91;6249363;22;20177;-88
2021/12/20 02:13:39;;;;;;;35.13;20.20;;;;;;;0.75;100.00;96237.75;6249966;22;20168;-88
2021/12/20 02:16:05;;;;;;;38.17;19.90;;;;;;;0.80;100.00;96235.84;6249322;22;20494;-88
2021/12/20 02:18:34;;;;;;;36.83;19.00;;;;;;;0.74;100.00;96231.00;6249390;22;20202;-87
2021/12/20 02:21:00;;;;;;;36.40;19.03;;;;;;;0.71;100.00;96221.75;6249820;22;20148;-87
2021/12/20 02:23:26;;;;;;;33.57;19.23;;;;;;;0.71;100.00;96229.41;6249575;22;20206;-87
2021/12/20 02:25:52;;;;;;;39.70;19.37;;;;;;;0.75;100.00;96232.66;6249450;22;20222;-87
2021/12/20 02:28:19;;;;;;;38.40;21.27;;;;;;;0.75;100.00;96233.47;6249569;22;20163;-87
2021/12/20 02:38:57;;;;;;;35.70;18.50;;;;;;;0.75;100.00;96217.31;6275033;22;20195;-88
2021/12/20 02:41:27;;;;;;;36.50;19.40;;;;;;;0.79;100.00;96222.19;6248554;22;20152;-88
2021/12/20 02:44:16;;;;;;;36.00;18.77;;;;;;;0.77;100.00;96221.44;6250284;22;20152;-87
2021/12/20 02:49:09;;;;;;;30.90;17.57;;;;;;;0.74;100.00;96211.38;6274841;22;20176;-87
2021/12/20 02:51:36;;;;;;;33.20;17.33;;;;;;;0.73;100.00;96217.38;6274953;22;20258;-88
2021/12/20 02:54:05;;;;;;;31.37;16.57;;;;;;;0.71;100.00;96205.59;6249469;22;20617;-87
2021/12/20 02:56:33;;;;;;;28.97;16.40;;;;;;;0.73;100.00;96203.78;6274925;22;20187;-88
2021/12/20 02:58:59;;;;;;;25.87;15.60;;;;;;;0.73;100.00;96207.16;6249767;22;20169;-88
2021/12/20 03:01:30;;;;;;;24.83;15.17;;;;;;;0.72;100.00;96209.78;6248931;22;20572;-88
2021/12/20 03:03:56;;;;;;;30.70;15.70;;;;;;;0.75;100.00;96213.03;6250235;22;20148;-88
2021/12/20 03:06:42;;;;;;;28.67;15.20;;;;;;;0.79;100.00;96214.53;6248966;22;20409;-87
2021/12/20 03:09:12;;;;;;;31.83;16.97;;;;;;;0.79;100.00;96208.56;6249189;22;20157;-88
2021/12/20 03:11:41;;;;;;;27.23;14.80;;;;;;;0.80;100.00;96210.25;6248839;22;20153;-87
2021/12/20 03:14:15;;;;;;;30.67;17.00;;;;;;;0.77;100.00;96200.97;6248671;22;20222;-89
2021/12/20 03:16:43;;;;;;;27.97;15.93;;;;;;;0.76;100.00;96199.34;6275016;22;20153;-88
2021/12/20 03:19:11;;;;;;;26.43;15.00;;;;;;;0.71;100.00;96196.19;6249534;22;20565;-88
2021/12/20 03:21:40;;;;;;;26.13;14.80;;;;;;;0.70;100.00;96194.50;6248858;22;20157;-88
2021/12/20 03:24:06;;;;;;;24.13;13.53;;;;;;;0.67;100.00;96197.22;6248653;22;20155;-87
2021/12/20 03:26:32;;;;;;;28.43;15.40;;;;;;;0.64;100.00;96201.66;6249005;22;20210;-88
2021/12/20 03:29:00;;;;;;;26.03;14.80;;;;;;;0.64;100.00;96199.91;6249535;22;20156;-88
2021/12/20 03:31:26;;;;;;;27.07;15.40;;;;;;;0.64;100.00;96196.53;6274008;22;20177;-87
2021/12/20 03:33:51;;;;;;;31.47;14.83;;;;;;;0.62;100.00;96201.72;6249513;22;20158;-87
2021/12/20 03:36:17;;;;;;;23.30;13.37;;;;;;;0.64;100.00;96197.38;6248284;22;20233;-88
2021/12/20 03:38:42;;;;;;;27.03;15.27;;;;;;;0.63;100.00;96198.28;6248920;22;20482;-87
2021/12/20 03:41:08;;;;;;;26.00;14.40;;;;;;;0.63;100.00;96203.38;6248329;22;20152;-87
2021/12/20 03:43:34;;;;;;;26.67;14.53;;;;;;;0.64;100.00;96207.59;6248937;22;20251;-88
2021/12/20 03:46:02;;;;;;;23.97;13.70;;;;;;;0.67;100.00;96202.31;6249999;22;20260;-88
2021/12/20 03:48:27;;;;;;;24.73;13.60;;;;;;;0.65;100.00;96210.97;6249640;22;20157;-88
2021/12/20 03:50:54;;;;;;;27.23;12.70;;;;;;;0.71;100.00;96216.63;6274845;22;20633;-87
2021/12/20 03:53:20;;;;;;;20.17;10.57;;;;;;;0.77;100.00;96216.31;6251354;22;20246;-88
2021/12/20 03:55:46;;;;;;;22.60;11.47;;;;;;;0.71;100.00;96218.38;6252870;22;20180;-88
2021/12/20 03:58:11;;;;;;;19.50;11.20;;;;;;;0.68;100.00;96214.19;6251979;22;20156;-89
2021/12/20 04:00:37;;;;;;;21.30;11.40;;;;;;;0.67;100.00;96215.09;6251273;22;20151;-87
2021/12/20 04:03:08;;;;;;;19.23;10.63;;;;;;;0.66;100.00;96213.44;6251686;22;20157;-89
2021/12/20 04:05:38;;;;;;;19.70;11.00;;;;;;;0.67;100.00;96215.09;6253453;22;20176;-87
2021/12/20 04:08:04;;;;;;;18.40;9.97;;;;;;;0.70;100.00;96222.63;6252810;22;20497;-88
2021/12/20 04:10:32;;;;;;;18.60;11.03;;;;;;;0.72;100.00;96218.28;6276570;22;20181;-87
2021/12/20 04:12:58;;;;;;;22.47;12.73;;;;;;;0.72;100.00;96202.13;6252292;22;20187;-88
2021/12/20 04:15:24;;;;;;;20.17;11.73;;;;;;;0.70;100.00;96202.16;6251573;22;20181;-88
2021/12/20 04:17:49;;;;;;;19.87;11.77;;;;;;;0.70;100.00;96209.84;6252036;22;20168;-87
2021/12/20 04:20:15;;;;;;;18.33;11.27;;;;;;;0.79;100.00;96211.13;6251557;22;20156;-88
2021/12/20 04:22:40;;;;;;;19.33;11.63;;;;;;;0.74;100.00;96208.81;6250619;22;20246;-88
2021/12/20 04:25:08;;;;;;;19.20;10.57;;;;;;;0.74;100.00;96207.97;6250973;22;20176;-88
2021/12/20 04:27:37;;;;;;;19.10;11.00;;;;;;;0.73;100.00;96204.59;6250848;22;20556;-87
2021/12/20 04:30:13;;;;;;;20.87;11.87;;;;;;;0.72;100.00;96218.28;6250838;22;20216;-88
2021/12/20 04:32:41;;;;;;;20.27;11.77;;;;;;;0.74;100.00;96210.53;6251760;22;20163;-88
2021/12/20 04:35:08;;;;;;;19.23;11.20;;;;;;;0.76;100.00;96213.84;6251153;22;20252;-88
2021/12/20 04:37:33;;;;;;;18.33;10.97;;;;;;;0.74;100.00;96207.97;6251396;22;20202;-87
2021/12/20 04:40:09;;;;;;;17.63;10.83;;;;;;;0.73;100.00;96207.16;6251844;22;20160;-87
2021/12/20 04:42:34;;;;;;;20.77;11.40;;;;;;;0.74;100.00;96211.38;6253746;22;20152;-88
2021/12/20 04:45:00;;;;;;;20.67;11.33;;;;;;;0.71;100.00;96213.25;6252439;22;20181;-87
2021/12/20 04:47:26;;;;;;;15.40;9.47;;;;;;;0.74;100.00;96211.38;6277453;22;20155;-87
2021/12/20 04:49:51;;;;;;;16.57;9.77;;;;;;;0.73;100.00;96204.59;6251530;22;20234;-87
2021/12/20 04:52:17;;;;;;;21.13;11.53;;;;;;;0.71;100.00;96206.41;6252891;22;20173;-88
2021/12/20 04:54:52;;;;;;;20.83;12.13;;;;;;;0.71;100.00;96211.53;6251670;22;20243;-87
2021/12/20 04:57:21;;;;;;;23.63;13.70;;;;;;;0.70;100.00;96209.84;6253859;22;20145;-87
2021/12/20 04:59:46;;;;;;;21.63;13.00;;;;;;;0.68;100.00;96205.72;6251403;22;20182;-87
2021/12/20 05:02:14;;;;;;;23.33;13.23;;;;;;;0.70;100.00;96206.44;6252009;22;20226;-87
2021/12/20 05:04:42;;;;;;;20.23;12.27;;;;;;;0.68;100.00;96206.53;6252616;22;20530;-88
2021/12/20 05:07:08;;;;;;;23.50;12.90;;;;;;;0.72;100.00;96215.72;6253046;22;20160;-86
2021/12/20 05:09:38;;;;;;;19.87;11.83;;;;;;;0.72;100.00;96213.19;6251946;22;20185;-88
2021/12/20 05:12:12;;;;;;;21.70;11.60;;;;;;;0.74;100.00;96218.22;6253989;22;20160;-86
2021/12/20 05:14:46;;;;;;;26.33;10.87;;;;;;;0.73;100.00;96222.50;6253833;22;20176;-87
2021/12/20 05:17:14;;;;;;;19.03;11.23;;;;;;;0.72;100.00;96218.28;6252655;22;20156;-87
2021/12/20 05:19:41;;;;;;;21.17;11.80;;;;;;;0.72;100.00;96218.28;6252323;22;20177;-88
2021/12/20 05:22:16;;;;;;;20.33;12.23;;;;;;;0.69;100.00;96215.03;6252270;22;20724;-87
2021/12/20 05:24:41;;;;;;;18.60;11.33;;;;;;;0.70;100.00;96220.06;6252198;22;20171;-82
2021/12/20 05:27:06;;;;;;;17.33;10.50;;;;;;;0.74;100.00;96220.78;6277458;22;20175;-87
2021/12/20 05:29:32;;;;;;;18.03;11.30;;;;;;;0.74;100.00;96221.59;6250720;22;20214;-87
2021/12/20 05:31:58;;;;;;;18.70;10.93;;;;;;;0.76;100.00;96219.78;6251103;22;20278;-87
2021/12/20 05:34:24;;;;;;;18.53;10.90;;;;;;;0.77;100.00;96218.88;6252613;22;20167;-87
2021/12/20 05:36:50;;;;;;;19.53;12.07;;;;;;;0.76;100.00;96222.34;6252587;22;20156;-87
2021/12/20 05:39:15;;;;;;;23.03;12.27;;;;;;;0.78;100.00;96219.72;6252629;22;20168;-86
2021/12/20 05:41:41;;;;;;;20.57;11.83;;;;;;;0.78;100.00;96212.88;6252239;22;20243;-86
2021/12/20 05:44:06;;;;;;;21.13;12.70;;;;;;;0.76;100.00;96217.22;6252082;22;20167;-85
2021/12/20 05:46:32;;;;;;;19.40;11.37;;;;;;;0.78;100.00;96228.22;6251733;22;20180;-85
2021/12/20 05:48:58;;;;;;;21.77;12.03;;;;;;;0.79;100.00;96221.38;6252786;22;20617;-86
2021/12/20 05:51:23;;;;;;;20.73;12.70;;;;;;;0.81;100.00;96222.97;6252297;22;20231;-87
2021/12/20 05:53:49;;;;;;;20.70;11.83;;;;;;;0.82;100.00;96228.91;6252743;22;20191;-87
2021/12/20 05:56:14;;;;;;;20.07;13.07;;;;;;;0.82;100.00;96229.72;6252236;22;20177;-87
2021/12/20 05:58:45;;;;;;;26.67;14.70;;;;;;;0.82;100.00;96229.72;6251312;22;20526;-88
2021/12/20 06:01:10;;;;;;;24.40;14.50;;;;;;;0.83;100.00;96228.00;6249891;22;20235;-86
2021/12/20 06:03:36;;;;;;;31.50;16.57;;;;;;;0.84;100.00;96222.00;6251573;22;20161;-86
2021/12/20 06:06:01;;;;;;;36.67;20.70;;;;;;;0.80;100.00;96225.59;6252267;22;20238;-86
2021/12/20 06:08:26;;;;;;;36.93;19.67;;;;;;;0.77;100.00;96231.66;6252988;22;20160;-86
2021/12/20 06:10:52;;;;;;;32.07;19.03;;;;;;;0.78;100.00;96238.44;6253134;22;20182;-87
2021/12/20 06:13:17;;;;;;;32.90;19.37;;;;;;;0.80;100.00;96235.84;6253185;22;20156;-86
2021/12/20 06:15:42;;;;;;;32.33;17.50;;;;;;;0.80;100.00;96234.09;6251924;22;20440;-87
2021/12/20 06:18:08;;;;;;;26.90;14.93;;;;;;;0.79;100.00;96236.69;6253109;22;20161;-86
2021/12/20 06:20:33;;;;;;;22.90;13.03;;;;;;;0.77;100.00;96230.84;6252558;22;20152;-87
2021/12/20 06:22:59;;;;;;;18.87;11.47;;;;;;;0.76;100.00;96232.56;6252320;22;20145;-88
2021/12/20 06:25:26;;;;;;;19.20;10.90;;;;;;;0.75;100.00;96236.03;6253187;22;20169;-88
2021/12/20 06:27:52;;;;;;;19.60;11.20;;;;;;;0.77;100.00;96238.50;6252291;22;20184;-87
2021/12/20 06:30:17;;;;;;;17.13;10.50;;;;;;;0.77;100.00;96241.91;6276551;22;20184;-87
2021/12/20 06:32:44;;;;;;;21.10;11.10;;;;;;;0.79;100.00;96250.31;6250699;22;20163;-87
2021/12/20 06:35:10;;;;;;;19.57;10.43;;;;;;;0.79;100.00;96239.25;6251164;22;20172;-86
2021/12/20 06:37:36;;;;;;;19.60;11.87;;;;;;;0.78;100.00;96243.53;6249276;22;20226;-87
2021/12/20 06:40:08;;;;;;;20.80;12.30;;;;;;;0.78;100.00;96242.72;6249633;22;20160;-88
2021/12/20 06:42:39;;;;;;;18.17;10.97;;;;;;;0.78;100.00;96243.53;6248625;22;20145;-88
2021/12/20 06:45:10;;;;;;;18.47;11.83;;;;;;;0.74;100.00;96246.34;6248885;22;20186;-88
2021/12/20 06:47:43;;;;;;;18.50;10.50;;;;;;;0.69;100.00;96248.25;6249587;22;20156;-88
2021/12/20 06:50:08;;;;;;;16.30;9.33;;;;;;;0.70;100.00;96244.81;6248444;22;20177;-87
2021/12/20 06:52:37;;;;;;;16.30;9.90;;;;;;;0.73;100.00;96237.84;6273224;22;20255;-88
2021/12/20 06:58:56;;;;;;;17.57;10.80;;;;;;;0.77;100.00;96248.75;6274397;22;20143;-89
2021/12/20 07:02:23;;;;;;;16.33;9.50;;;;;;;0.75;100.00;96246.25;6247900;22;20148;-89
2021/12/20 07:08:28;;;;;;;17.27;9.13;;;;;;;0.74;100.00;96248.88;6163152;23;20173;-88
2021/12/20 07:20:42;;;;;;;15.23;9.67;;;;;;;0.74;100.00;96252.28;6182505;23;20181;-86
2021/12/20 07:33:01;;;;;;;20.00;11.57;;;;;;;0.81;100.00;96253.66;6181082;23;20655;-87
2021/12/20 07:35:27;;;;;;;21.97;11.33;;;;;;;0.85;100.00;96265.38;6155500;23;20261;-87
2021/12/20 07:37:56;;;;;;;21.93;12.57;;;;;;;0.86;100.00;96266.22;6156918;23;20159;-87
2021/12/20 07:40:21;;;;;;;17.03;10.80;;;;;;;0.87;100.00;96259.38;6156701;23;20161;-87
2021/12/20 07:42:47;;;;;;;16.60;10.23;;;;;;;0.87;100.00;96265.31;6156840;23;20164;-87
2021/12/20 07:45:12;;;;;;;15.87;10.33;;;;;;;0.91;100.00;96259.16;6156976;23;20210;-87
2021/12/20 07:47:37;;;;;;;19.63;10.97;;;;;;;0.92;100.00;96265.09;6157565;23;20173;-86
2021/12/20 07:50:04;;;;;;;20.20;11.33;;;;;;;0.93;100.00;96277.00;6132480;23;20236;-86
2021/12/20 07:52:30;;;;;;;19.70;11.97;;;;;;;0.94;100.00;96281.19;6222056;22;20170;-87
2021/12/20 07:54:55;;;;;;;22.20;13.70;;;;;;;0.98;100.00;96275.06;6224659;22;20180;-86
2021/12/20 07:57:21;;;;;;;23.63;14.13;;;;;;;0.96;100.00;96272.53;6224849;22;20216;-86
2021/12/20 07:59:46;;;;;;;23.60;13.50;;;;;;;1.01;100.00;96282.56;6232449;22;20153;-87
2021/12/20 08:02:13;;;;;;;19.40;11.77;;;;;;;1.01;100.00;96277.47;6229139;22;20163;-87
2021/12/20 08:04:50;;;;;;;21.70;12.13;;;;;;;1.06;100.00;96272.94;6231147;22;20230;-88
2021/12/20 08:07:22;;;;;;;19.43;10.80;;;;;;;1.11;100.00;96276.13;6227176;22;20145;-86
2021/12/20 08:10:14;;;;;;;16.93;10.50;;;;;;;1.15;100.00;96275.09;6226879;22;20614;-90
2021/12/20 08:12:39;;;;;;;17.83;9.60;;;;;;;1.19;100.00;96266.34;6224778;22;20163;-84
2021/12/20 08:15:08;;;;;;;16.77;10.77;;;;;;;1.24;100.00;96271.28;6225976;22;20699;-84
2021/12/20 08:17:33;;;;;;;18.63;10.97;;;;;;;1.23;100.00;96278.09;6224954;22;20227;-87
2021/12/20 08:19:59;;;;;;;18.67;10.77;;;;;;;1.30;100.00;96278.63;6222920;22;20176;-86
2021/12/20 08:22:44;;;;;;;17.73;11.20;;;;;;;1.30;100.00;96271.78;6222923;22;20235;-88
2021/12/20 08:25:10;;;;;;;17.50;10.60;;;;;;;1.38;100.00;96279.09;6225182;22;20193;-86
2021/12/20 08:27:35;;;;;;;21.83;13.17;;;;;;;1.41;100.00;96277.25;6224118;22;20654;-87
2021/12/20 08:30:01;;;;;;;23.90;15.00;;;;;;;1.45;100.00;96277.06;6222655;22;20804;-86
2021/12/20 08:32:26;;;;;;;31.30;19.73;;;;;;;1.47;100.00;96278.66;6222180;22;20510;-86
2021/12/20 08:34:53;;;;;;;29.90;18.67;;;;;;;1.47;100.00;96281.22;6223143;22;20487;-85
2021/12/20 08:37:21;;;;;;;29.27;18.57;;;;;;;1.51;100.00;96287.03;6224131;22;20160;-87
2021/12/20 08:39:52;;;;;;;27.33;18.40;;;;;;;1.54;100.00;96279.19;6224051;22;20152;-87
2021/12/20 08:42:18;;;;;;;29.97;19.60;;;;;;;1.59;100.00;96277.22;6224169;22;20192;-88
2021/12/20 08:44:43;;;;;;;33.23;22.07;;;;;;;1.64;100.00;96285.50;6224652;22;20179;-87
2021/12/20 08:47:08;;;;;;;26.33;16.83;;;;;;;1.59;100.00;96288.31;6224549;22;20188;-87
2021/12/20 08:49:34;;;;;;;22.80;14.80;;;;;;;1.61;100.00;96289.06;6249217;22;20466;-86
2021/12/20 08:52:00;;;;;;;21.73;14.57;;;;;;;1.63;100.00;96286.41;6249473;22;20232;-86
2021/12/20 08:54:28;;;;;;;26.77;16.70;;;;;;;1.68;100.00;96297.28;6224481;22;20385;-86
2021/12/20 08:56:55;;;;;;;29.37;17.83;;;;;;;1.74;100.00;96291.84;6250041;22;20229;-86
2021/12/20 08:59:20;;;;;;;23.40;14.23;;;;;;;1.79;100.00;96304.41;6224096;22;20160;-85
2021/12/20 09:01:46;;;;;;;19.20;11.73;;;;;;;1.79;100.00;96301.88;6223307;22;20240;-86
2021/12/20 09:04:11;;;;;;;21.97;12.83;;;;;;;1.85;100.00;96298.97;6248687;22;20157;-87
2021/12/20 09:06:39;;;;;;;20.17;11.93;;;;;;;1.85;100.00;96304.09;6223762;22;20198;-86
2021/12/20 09:09:09;;;;;;;22.23;13.10;;;;;;;1.88;100.00;96299.66;6249371;22;20279;-87
2021/12/20 09:11:35;;;;;;;24.37;14.67;;;;;;;1.97;100.00;96309.44;6223708;22;20172;-87
2021/12/20 09:14:00;;;;;;;20.40;13.37;;;;;;;1.99;100.00;96317.06;6248894;22;20164;-87
2021/12/20 09:16:25;;;;;;;23.63;13.60;;;;;;;2.02;100.00;96309.22;6223987;22;20222;-87
2021/12/20 09:18:51;;;;;;;19.00;11.17;;;;;;;1.98;100.00;96308.53;6223833;22;20152;-87
2021/12/20 09:21:16;;;;;;;17.77;11.20;;;;;;;2.01;100.00;96310.13;6248523;22;20546;-87
2021/12/20 09:23:43;;;;;;;17.50;10.50;;;;;;;1.79;100.00;96309.53;6249380;22;20514;-87
2021/12/20 09:26:08;;;;;;;15.90;10.10;;;;;;;1.93;100.00;96310.50;6249283;22;20660;-86
2021/12/20 09:28:34;;;;;;;17.97;11.30;;;;;;;1.80;100.00;96311.19;6223987;22;20152;-87
2021/12/20 09:31:00;;;;;;;14.40;9.83;;;;;;;1.84;100.00;96313.50;6223595;22;20168;-85
2021/12/20 09:33:26;;;;;;;16.90;10.43;;;;;;;1.82;100.00;96317.88;6223419;22;20240;-87
2021/12/20 09:35:53;;;;;;;15.60;10.07;;;;;;;1.80;100.00;96306.91;6249053;22;20195;-87
2021/12/20 09:38:19;;;;;;;18.30;10.40;;;;;;;1.70;100.00;96306.53;6224520;22;20164;-87
2021/12/20 09:43:30;;;;;;;18.40;11.13;;;;;;;1.88;100.00;96315.03;6253342;22;20246;-87
2021/12/20 09:45:57;;;;;;;17.10;10.37;;;;;;;1.77;100.00;96319.00;6222953;22;20180;-87
2021/12/20 09:48:23;;;;;;;15.67;10.40;;;;;;;1.84;100.00;96321.19;6224089;22;20243;-87
2021/12/20 09:50:48;;;;;;;17.33;11.07;;;;;;;1.95;100.00;96321.50;6223848;22;20249;-86
2021/12/20 09:53:14;;;;;;;23.20;14.70;;;;;;;1.96;100.00;96318.06;6222701;22;20595;-86
2021/12/20 09:55:46;;;;;;;18.73;11.07;;;;;;;1.92;100.00;96319.09;6223332;22;20707;-86
2021/12/20 09:58:12;;;;;;;19.33;11.23;;;;;;;1.91;100.00;96322.56;6223472;22;20152;-86
2021/12/20 10:00:38;;;;;;;18.93;12.03;;;;;;;1.87;100.00;96313.38;6223414;22;20193;-85
2021/12/20 10:03:03;;;;;;;22.57;14.07;;;;;;;1.86;100.00;96316.84;6248424;22;20153;-86
2021/12/20 10:05:29;;;;;;;25.13;14.27;;;;;;;1.86;100.00;96316.84;6248732;22;20622;-87
2021/12/20 10:07:56;;;;;;;20.87;13.07;;;;;;;1.89;100.00;96306.44;6223729;22;20156;-87
2021/12/20 10:10:38;;;;;;;25.13;13.60;;;;;;;2.02;100.00;96306.66;6223391;22;20633;-87
2021/12/20 10:13:03;;;;;;;21.40;12.30;;;;;;;1.87;100.00;96307.44;6222885;22;20235;-86
2021/12/20 10:15:34;;;;;;;20.30;12.43;;;;;;;1.97;100.00;96304.31;6248762;22;20196;-87
2021/12/20 10:18:00;;;;;;;23.37;12.47;;;;;;;1.92;100.00;96306.28;6222912;22;20180;-87
2021/12/20 10:20:28;;;;;;;24.10;13.53;;;;;;;2.02;100.00;96305.81;6248875;22;20218;-87
2021/12/20 10:23:07;;;;;;;21.60;12.83;;;;;;;2.08;100.00;96308.91;6223204;22;20159;-87
2021/12/20 10:25:35;;;;;;;25.63;14.07;;;;;;;1.98;100.00;96311.09;6224352;22;20225;-86
2021/12/20 10:28:06;;;;;;;26.17;14.37;;;;;;;2.01;100.00;96306.72;6223584;22;20156;-86
2021/12/20 10:30:35;;;;;;;23.27;15.30;;;;;;;1.95;100.00;96293.34;6223767;22;20226;-87
2021/12/20 10:33:02;;;;;;;20.87;12.57;;;;;;;2.07;100.00;96306.44;6223168;22;20163;-86
2021/12/20 10:35:40;;;;;;;23.50;14.00;;;;;;;2.13;100.00;96303.56;6223444;22;20219;-87
2021/12/20 10:38:20;;;;;;;20.40;12.40;;;;;;;2.16;100.00;96298.28;6223571;22;20596;-87
2021/12/20 10:40:48;;;;;;;24.17;14.70;;;;;;;2.19;100.00;96288.69;6222410;22;20136;-86
2021/12/20 10:43:17;;;;;;;22.53;11.90;;;;;;;2.42;100.00;96297.75;6222838;22;20183;-86
2021/12/20 10:45:43;;;;;;;19.30;12.50;;;;;;;2.40;100.00;96299.59;6223213;22;20180;-87
2021/12/20 10:48:10;;;;;;;22.30;12.30;;;;;;;2.64;100.00;96291.50;6248282;22;20606;-87
2021/12/20 10:50:42;;;;;;;21.63;12.37;;;;;;;2.80;99.71;96295.72;6223457;22;20321;-87
2021/12/20 10:53:21;;;;;;;23.03;12.23;;;;;;;2.83;98.42;96285.31;6248377;22;20276;-87
2021/12/20 10:55:54;;;;;;;18.80;11.17;;;;;;;2.96;98.35;96290.63;6223501;22;20188;-86
2021/12/20 10:58:38;;;;;;;20.90;12.80;;;;;;;2.89;96.79;96284.16;6249060;22;20168;-86
2021/12/20 11:03:45;;;;;;;17.37;10.97;;;;;;;2.93;97.26;96284.84;6248833;22;20164;-86
2021/12/20 11:11:27;;;;;;;17.00;10.70;;;;;;;2.88;94.97;96285.06;6252453;22;20525;-86
2021/12/20 11:13:53;;;;;;;23.00;12.00;;;;;;;2.88;95.66;96287.63;6227602;22;20160;-86
2021/12/20 11:16:45;;;;;;;18.87;10.40;;;;;;;3.01;95.02;96280.13;6252260;22;20176;-85
2021/12/20 11:19:24;;;;;;;22.33;11.97;;;;;;;3.16;94.47;96283.56;6275719;22;20161;-86
2021/12/20 11:21:51;;;;;;;22.73;12.47;;;;;;;3.17;94.21;96280.06;6223154;22;20188;-86
2021/12/20 11:24:19;;;;;;;19.17;11.07;;;;;;;3.34;92.72;96279.97;6249014;22;20243;-86
2021/12/20 11:26:44;;;;;;;16.63;10.10;;;;;;;3.29;91.53;96287.13;6223285;22;20152;-85
2021/12/20 11:29:10;;;;;;;23.70;11.70;;;;;;;3.28;90.68;96286.28;6223312;22;20244;-85
2021/12/20 11:31:37;;;;;;;18.03;10.10;;;;;;;2.96;90.70;96282.91;6222151;22;20542;-85
2021/12/20 11:34:03;;;;;;;17.47;10.83;;;;;;;3.02;90.98;96282.59;6224170;22;20594;-85
2021/12/20 11:36:28;;;;;;;17.87;10.83;;;;;;;2.83;90.49;96284.50;6223149;22;20216;-87
2021/12/20 11:38:53;;;;;;;19.50;11.30;;;;;;;2.84;89.85;96279.28;6222035;22;20160;-87
2021/12/20 11:41:19;;;;;;;16.07;10.90;;;;;;;2.76;89.78;96288.31;6222603;22;20156;-87
2021/12/20 11:43:47;;;;;;;19.20;11.37;;;;;;;2.86;89.76;96281.75;6223058;22;20160;-87
2021/12/20 11:46:14;;;;;;;15.50;10.83;;;;;;;3.13;89.45;96287.13;6222863;22;20491;-87
2021/12/20 11:48:39;;;;;;;21.40;11.67;;;;;;;3.10;87.36;96285.56;6222604;22;20188;-87
2021/12/20 11:51:05;;;;;;;18.83;11.50;;;;;;;3.17;88.51;96282.66;6222582;22;20256;-87
2021/12/20 11:53:36;;;;;;;22.97;12.60;;;;;;;3.15;89.29;96281.91;6222512;22;20161;-86
2021/12/20 11:56:01;;;;;;;19.17;11.90;;;;;;;3.17;89.59;96286.03;6248711;22;20183;-86
2021/12/20 11:58:31;;;;;;;20.13;11.87;;;;;;;3.08;89.42;96289.94;6223108;22;20467;-87
2021/12/20 12:01:15;;;;;;;19.07;11.60;;;;;;;2.60;90.08;96288.28;6249297;22;20130;-87
2021/12/20 12:03:51;;;;;;;21.40;11.27;;;;;;;2.96;89.77;96284.66;6223185;22;20588;-86
2021/12/20 12:06:24;;;;;;;25.50;12.90;;;;;;;2.83;89.33;96289.63;6222971;22;20214;-85
2021/12/20 12:08:51;;;;;;;17.03;10.00;;;;;;;2.64;87.97;96284.63;6248614;22;20145;-86
2021/12/20 12:11:16;;;;;;;21.17;10.57;;;;;;;2.72;89.28;96291.91;6248260;22;20172;-85
2021/12/20 12:13:50;;;;;;;26.87;12.43;;;;;;;2.46;88.92;96286.44;6250194;22;20598;-84
2021/12/20 12:16:29;;;;;;;20.17;11.83;;;;;;;2.34;89.11;96294.75;6250313;22;20206;-87
2021/12/20 12:18:57;;;;;;;43.73;23.03;;;;;;;2.33;88.99;96282.84;6227265;22;20140;-87